This is the latest recevied weather packets stored in our database for station/object OE-11179. If no packets are shown the sender has not sent any weather packets the latest 10 day(s).
| Time | Temp. | Humidity | Pressure | Rain* | Wind** | Luminosity | Snow |
|---|---|---|---|---|---|---|---|
| 1787681505 | 14.44° C | 100% | - | 1.02 mm | - | - | - |
| 1787681132 | 14.44° C | 100% | - | 1.27 mm | - | - | - |
| 1787680532 | 14.44° C | 100% | - | 1.27 mm | - | - | - |
| 1787679703 | 14.44° C | 100% | - | 1.27 mm | - | - | - |
| 1787679330 | 14.44° C | 100% | - | 1.52 mm | - | - | - |
| 1787678730 | 15° C | 98% | - | 1.78 mm | - | - | - |
| 1787677903 | 15° C | 96% | - | 1.52 mm | - | - | - |
| 1787677530 | 15.56° C | 92% | - | 1.27 mm | - | - | - |
| 1787676929 | 15.56° C | 93% | - | 1.52 mm | - | - | - |
| 1787676103 | 15.56° C | 92% | - | 1.78 mm | - | - | - |
| 1787675729 | 15.56° C | 92% | - | 2.29 mm | - | - | - |
| 1787675129 | 15.56° C | 92% | - | 2.03 mm | - | - | - |
| 1787674303 | 15.56° C | 92% | - | 1.78 mm | - | - | - |
| 1787673930 | 15.56° C | 91% | - | 1.78 mm | - | - | - |
| 1787673330 | 15.56° C | 90% | - | 1.78 mm | - | - | - |
| 1787672503 | 15.56° C | 90% | - | 1.52 mm | - | - | - |
| 1787672130 | 16.11° C | 88% | - | 1.02 mm | - | - | - |
| 1787671530 | 16.67° C | 82% | - | 0.51 mm | - | - | - |
| 1787670703 | 17.22° C | 76% | - | 0 mm | - | - | - |
| 1787670328 | 17.78° C | 75% | - | 0 mm | - | - | - |
| 1787669730 | 17.78° C | 74% | - | 0 mm | - | - | - |
| 1787668903 | 18.33° C | 72% | - | 0 mm | - | - | - |
| 1787668529 | 18.33° C | 73% | - | 0 mm | - | - | - |
| 1787667929 | 18.33° C | 72% | - | 0 mm | - | - | - |
| 1787667103 | 18.33° C | 73% | - | 0 mm | - | - | - |
* Rain latest hour (hover to see other rain measurements)
** Current wind speed in m/s (hover to see current wind gust speed)